Portada
METAR-TAF:

METAR-TAF

Aeroports :

Ilo, Perú

latitud: 17-41-45S, longitud: 071-20-35W, altitud: 22 m

Observació

L'informe es va fer fa 8 hores i 3 minuts, a les 21:00 UTC
Temperatura 18°C
Humitat 77%
Pressió 1017 hPa
Visibilitat 10 km o més
Núvols disperses a una alçada de 3000 ft
Cel ennuvolat a una alçada de 4000 ft

METAR: SPLO 152100Z /////KT 9999 SCT030 BKN040 18/14 Q1017 RMK TX 21.0 PP000

Hora: 00:03 (05:03 UTC)

Pronòstic

L'informe es va fer fa 12 hores i 3 minuts, a les 17:00 UTC
Pronòstic vàlid del 15 a les 18 UTC al 16 a les 18 UTC
Vent 10 kt del Sud/Sud-Est
Visibilitat 10 km o més
Cel ennuvolat a una alçada de 3500 ft
A partir de les 15 a les 2330 UTC
Vent 5 kt del Sud
Visibilitat 10 km o més
Cel cobert a una alçada de 2200 ft

TAF: SPLO 151700Z 1518/1618 15010KT 9999 BKN035 TX19/1519Z TN16/1610Z FM152330 18005KT 9999 OVC022

Observacions i pronòstics meteorològics de més de 4000 aeroports (METAR i TAF).

Les estacions disponibles són els punts grocs i vermells al mapa.

Posi el ratolí al punt desitjat per veure el nom de l'estació.

Feu clic per veure les observacions i els pronòstics meteorològics.

Per canviar el mapa: feu clic els botons verds amb una creu de color negre per apropar; al botó verd amb un guió per allunyar la imatge; o en les fletxes verdes per a mapes adjacents.


METAR-TAF: